Rhapsody Of The Seas — C6UA2 — position and weather

sailwx.info

Track history (hours):
 
Tides and Currents Weather Stations Pressure Air Temp Water Temp Dewpoint Dewpoint Depression Visibility Wind Speed Wind Dir Waves Ship Positions

Rhapsody Of The Seas

Last reported at 2014-Aug-01 04:31 UTC. Time now 2014-Aug-01 05:44 UTC.
Position N 48°15' W 123°55'.

Type: Passenger vessel. MMSI: 311805000.

Date/timePositionNaut miles runAvg speedWind from/ knotsBaromVisibWave heightAir tempDewpointWater temp
2014-Aug-01 04:31N 48°15' W 123°55'6 6.3
2014-Aug-01 03:30N 48°16' W 123°46'8 8.2
2014-Aug-01 02:34N 48°15' W 123°34'8 7.6
2014-Aug-01 01:33N 48°20' W 123°26'5 4.9
2014-Aug-01 00:32N 48°25' W 123°24'0 0.0
2014-Jul-31 23:32N 48°25' W 123°24'0 0.0
2014-Jul-31 22:29N 48°25' W 123°24'0 0.0
2014-Jul-31 21:32N 48°25' W 123°24'0 0.0
2014-Jul-31 20:32N 48°25' W 123°24'0 0.0
2014-Jul-31 19:32N 48°25' W 123°24'0 0.0
2014-Jul-31 18:32N 48°25' W 123°24'0 0.0
2014-Jul-31 17:29N 48°25' W 123°24'0 0.0
2014-Jul-31 16:23N 48°25' W 123°24'0 0.0
2014-Jul-31 15:29N 48°25' W 123°24'6 6.7
2014-Jul-31 14:34N 48°19' W 123°25'1413.3
2014-Jul-31 13:31N 48°13' W 123°44'1515.7
2014-Jul-31 12:33N 48°17' W 124°06'1716.7
2014-Jul-31 11:34N 48°23' W 124°29'1615.9
2014-Jul-31 10:34N 48°29' W 124°51'1816.5
2014-Jul-31 09:26N 48°30' W 125°19'1416.5
2014-Jul-31 08:33N 48°37' W 125°38'1716.6
2014-Jul-31 07:34N 48°47' W 125°58'1717.2
2014-Jul-31 06:34N 48°58' W 126°19'1817.6
2014-Jul-31 05:33N 49°08' W 126°40'1717.4
2014-Jul-31 04:33N 49°19' W 127°01'1817.9
2014-Jul-31 03:33N 49°30' W 127°23'1817.7
2014-Jul-31 02:33N 49°42' W 127°44'  
2014-Jul-26 10:17N 49°12' W 126°48'1520.6
2014-Jul-26 09:33N 49°03' W 126°30'1526.7
2014-Jul-26 09:00N 48°54' W 126°12'512.5 999 / 51019.0 0.0 13.013.015.0
2014-Jul-26 08:33N 48°51' W 126°05'2121.1
2014-Jul-26 07:33N 48°39' W 125°38'2120.9
2014-Jul-26 06:33N 48°31' W 125°09'2120.7
2014-Jul-26 05:33N 48°29' W 124°38'2121.3
2014-Jul-26 04:33N 48°21' W 124°09'2120.9
2014-Jul-26 03:32N 48°15' W 123°38'1615.9
2014-Jul-26 02:32N 48°10' W 123°15'1919.2
2014-Jul-26 01:33N 48°11' W 122°47'1818.4
2014-Jul-26 00:33N 47°57' W 122°30'1818.3
2014-Jul-25 23:34N 47°38' W 122°27'3 2.6
2014-Jul-25 22:29N 47°38' W 122°23'0 0.0
2014-Jul-25 21:32N 47°38' W 122°23'0 0.0
2014-Jul-25 20:32N 47°38' W 122°23'0 0.0
2014-Jul-25 19:32N 47°38' W 122°23'0 0.0
2014-Jul-25 18:32N 47°38' W 122°23'0 0.0
2014-Jul-25 17:32N 47°38' W 122°23'0 0.0
2014-Jul-25 15:32N 47°38' W 122°23'0 0.0
2014-Jul-25 14:32N 47°38' W 122°23'0 0.0
2014-Jul-25 13:23N 47°38' W 122°23'0 0.2
2014-Jul-25 12:34N 47°37' W 122°23'8 7.7
2014-Jul-25 11:34N 47°45' W 122°27'1212.1
2014-Jul-25 10:33N 47°56' W 122°32'1813.3
2014-Jul-25 09:14N 48°10' W 122°48'1013.7
2014-Jul-25 08:28N 48°12' W 123°03'1313.5
2014-Jul-25 07:31N 48°11' W 123°22'20 8.1
2014-Jul-25 05:06N 48°14' W 123°52'4 4.6
2014-Jul-25 04:18N 48°17' W 123°54'7 7.2
2014-Jul-25 03:23N 48°16' W 123°44'6 7.2
2014-Jul-25 02:33N 48°15' W 123°36'7 6.9
2014-Jul-25 01:33N 48°19' W 123°27'6 5.9
2014-Jul-25 00:32N 48°25' W 123°24'0 0.0
2014-Jul-24 23:32N 48°25' W 123°24'0 0.0
2014-Jul-24 22:32N 48°25' W 123°24'0 0.0
2014-Jul-24 21:29N 48°25' W 123°24'0 0.0
2014-Jul-24 20:32N 48°25' W 123°24'0 0.0
2014-Jul-24 19:32N 48°25' W 123°24'0 0.0
2014-Jul-24 18:32N 48°25' W 123°24'0 0.0
2014-Jul-24 17:32N 48°25' W 123°24'0 0.0
2014-Jul-24 16:32N 48°25' W 123°24'0 0.0
2014-Jul-24 15:32N 48°25' W 123°24'5 5.5
2014-Jul-24 14:33N 48°20' W 123°24'1414.3
2014-Jul-24 13:33N 48°13' W 123°44'1818.5
2014-Jul-24 12:34N 48°18' W 124°10'1818.4
2014-Jul-24 11:34N 48°26' W 124°36'1716.4
2014-Jul-24 10:32N 48°29' W 125°00'2116.7
2014-Jul-24 09:16N 48°35' W 125°31'1216.9
2014-Jul-24 08:34N 48°42' W 125°46'1717.1
2014-Jul-24 07:33N 48°52' W 126°07'  
Track history (hours):
 
Tides and Currents Weather Stations Pressure Air Temp Water Temp Dewpoint Dewpoint Depression Visibility Wind Speed Wind Dir Waves Ship Positions

Rhapsody Of The Seas

Last reported at 2014-Aug-01 04:31 UTC. Time now 2014-Aug-01 05:44 UTC.
Position N 48°15' W 123°55'.

Type: Passenger vessel. MMSI: 311805000.

Date/timePositionNaut miles runAvg speedWind from/ knotsBaromVisibWave heightAir tempDewpointWater temp
2014-Aug-01 04:31N 48°15' W 123°55'6 6.3
2014-Aug-01 03:30N 48°16' W 123°46'8 8.2
2014-Aug-01 02:34N 48°15' W 123°34'8 7.6
2014-Aug-01 01:33N 48°20' W 123°26'5 4.9
2014-Aug-01 00:32N 48°25' W 123°24'0 0.0
2014-Jul-31 23:32N 48°25' W 123°24'0 0.0
2014-Jul-31 22:29N 48°25' W 123°24'0 0.0
2014-Jul-31 21:32N 48°25' W 123°24'0 0.0
2014-Jul-31 20:32N 48°25' W 123°24'0 0.0
2014-Jul-31 19:32N 48°25' W 123°24'0 0.0
2014-Jul-31 18:32N 48°25' W 123°24'0 0.0
2014-Jul-31 17:29N 48°25' W 123°24'0 0.0
2014-Jul-31 16:23N 48°25' W 123°24'0 0.0
2014-Jul-31 15:29N 48°25' W 123°24'6 6.7
2014-Jul-31 14:34N 48°19' W 123°25'1413.3
2014-Jul-31 13:31N 48°13' W 123°44'1515.7
2014-Jul-31 12:33N 48°17' W 124°06'1716.7
2014-Jul-31 11:34N 48°23' W 124°29'1615.9
2014-Jul-31 10:34N 48°29' W 124°51'1816.5
2014-Jul-31 09:26N 48°30' W 125°19'1416.5
2014-Jul-31 08:33N 48°37' W 125°38'1716.6
2014-Jul-31 07:34N 48°47' W 125°58'1717.2
2014-Jul-31 06:34N 48°58' W 126°19'1817.6
2014-Jul-31 05:33N 49°08' W 126°40'1717.4
2014-Jul-31 04:33N 49°19' W 127°01'1817.9
2014-Jul-31 03:33N 49°30' W 127°23'1817.7
2014-Jul-31 02:33N 49°42' W 127°44'  
2014-Jul-26 10:17N 49°12' W 126°48'1520.6
2014-Jul-26 09:33N 49°03' W 126°30'1526.7
2014-Jul-26 09:00N 48°54' W 126°12'512.5 999 / 51019.0 0.0 13.013.015.0
2014-Jul-26 08:33N 48°51' W 126°05'2121.1
2014-Jul-26 07:33N 48°39' W 125°38'2120.9
2014-Jul-26 06:33N 48°31' W 125°09'2120.7
2014-Jul-26 05:33N 48°29' W 124°38'2121.3
2014-Jul-26 04:33N 48°21' W 124°09'2120.9
2014-Jul-26 03:32N 48°15' W 123°38'1615.9
2014-Jul-26 02:32N 48°10' W 123°15'1919.2
2014-Jul-26 01:33N 48°11' W 122°47'1818.4
2014-Jul-26 00:33N 47°57' W 122°30'1818.3
2014-Jul-25 23:34N 47°38' W 122°27'3 2.6
2014-Jul-25 22:29N 47°38' W 122°23'0 0.0
2014-Jul-25 21:32N 47°38' W 122°23'0 0.0
2014-Jul-25 20:32N 47°38' W 122°23'0 0.0
2014-Jul-25 19:32N 47°38' W 122°23'0 0.0
2014-Jul-25 18:32N 47°38' W 122°23'0 0.0
2014-Jul-25 17:32N 47°38' W 122°23'0 0.0
2014-Jul-25 15:32N 47°38' W 122°23'0 0.0
2014-Jul-25 14:32N 47°38' W 122°23'0 0.0
2014-Jul-25 13:23N 47°38' W 122°23'0 0.2
2014-Jul-25 12:34N 47°37' W 122°23'8 7.7
2014-Jul-25 11:34N 47°45' W 122°27'1212.1
2014-Jul-25 10:33N 47°56' W 122°32'1813.3
2014-Jul-25 09:14N 48°10' W 122°48'1013.7
2014-Jul-25 08:28N 48°12' W 123°03'1313.5
2014-Jul-25 07:31N 48°11' W 123°22'20 8.1
2014-Jul-25 05:06N 48°14' W 123°52'4 4.6
2014-Jul-25 04:18N 48°17' W 123°54'7 7.2
2014-Jul-25 03:23N 48°16' W 123°44'6 7.2
2014-Jul-25 02:33N 48°15' W 123°36'7 6.9
2014-Jul-25 01:33N 48°19' W 123°27'6 5.9
2014-Jul-25 00:32N 48°25' W 123°24'0 0.0
2014-Jul-24 23:32N 48°25' W 123°24'0 0.0
2014-Jul-24 22:32N 48°25' W 123°24'0 0.0
2014-Jul-24 21:29N 48°25' W 123°24'0 0.0
2014-Jul-24 20:32N 48°25' W 123°24'0 0.0
2014-Jul-24 19:32N 48°25' W 123°24'0 0.0
2014-Jul-24 18:32N 48°25' W 123°24'0 0.0
2014-Jul-24 17:32N 48°25' W 123°24'0 0.0
2014-Jul-24 16:32N 48°25' W 123°24'0 0.0
2014-Jul-24 15:32N 48°25' W 123°24'5 5.5
2014-Jul-24 14:33N 48°20' W 123°24'1414.3
2014-Jul-24 13:33N 48°13' W 123°44'1818.5
2014-Jul-24 12:34N 48°18' W 124°10'1818.4
2014-Jul-24 11:34N 48°26' W 124°36'1716.4
2014-Jul-24 10:32N 48°29' W 125°00'2116.7
2014-Jul-24 09:16N 48°35' W 125°31'1216.9
2014-Jul-24 08:34N 48°42' W 125°46'1717.1
2014-Jul-24 07:33N 48°52' W 126°07'  

Dump ship's entire track history